createdAt,value
2022-12-03T00:01:04.732Z,-2.06
2022-12-03T00:06:07.770Z,-2.04
2022-12-03T00:11:10.457Z,-2.03
2022-12-03T00:16:13.870Z,-2.03
2022-12-03T00:21:16.994Z,-2.04
2022-12-03T00:26:19.899Z,-2.06
2022-12-03T00:31:23.748Z,-2.09
2022-12-03T00:36:26.635Z,-2.06
2022-12-03T00:41:29.432Z,-1.98
2022-12-03T00:46:32.266Z,-1.90
2022-12-03T00:51:36.011Z,-1.92
2022-12-03T00:56:38.853Z,-1.92
2022-12-03T01:01:41.717Z,-1.93
2022-12-03T01:06:44.506Z,-1.95
2022-12-03T01:11:47.247Z,-1.99
2022-12-03T01:16:50.019Z,-1.96
2022-12-03T01:21:52.963Z,-1.90
2022-12-03T01:26:56.907Z,-1.83
2022-12-03T01:32:18.242Z,-1.79
2022-12-03T01:37:24.650Z,-1.80
2022-12-03T01:42:32.447Z,-1.83
2022-12-03T01:47:37.331Z,-1.87
2022-12-03T01:52:40.901Z,-1.90
2022-12-03T01:57:50.667Z,-1.94
2022-12-03T02:03:00.211Z,-1.94
2022-12-03T02:08:26.489Z,-1.91
2022-12-03T02:13:29.485Z,-1.85
2022-12-03T02:18:32.390Z,-1.84
2022-12-03T02:24:06.096Z,-1.88
2022-12-03T02:29:08.916Z,-1.92
2022-12-03T02:34:11.817Z,-1.94
2022-12-03T02:39:14.620Z,-1.96
2022-12-03T02:44:17.421Z,-1.91
2022-12-03T02:49:20.225Z,-1.85
2022-12-03T02:54:23.598Z,-1.81
2022-12-03T02:59:26.542Z,-1.77
2022-12-03T03:04:30.076Z,-1.77
2022-12-03T03:09:33.973Z,-1.79
2022-12-03T03:14:36.787Z,-1.80
2022-12-03T03:19:39.557Z,-1.84
2022-12-03T03:24:42.392Z,-1.83
2022-12-03T03:29:45.192Z,-1.80
2022-12-03T03:34:47.959Z,-1.81
2022-12-03T03:39:51.129Z,-1.80
2022-12-03T03:44:54.062Z,-1.80
2022-12-03T03:49:57.114Z,-1.84
2022-12-03T03:54:59.907Z,-1.89
2022-12-03T04:00:04.940Z,-1.92
2022-12-03T04:05:11.446Z,-1.87
2022-12-03T04:10:37.689Z,-1.82
2022-12-03T04:15:40.414Z,-1.78
2022-12-03T04:20:43.146Z,-1.76
2022-12-03T04:26:04.855Z,-1.78
2022-12-03T04:31:26.804Z,-1.80
2022-12-03T04:36:29.507Z,-1.80
2022-12-03T04:41:32.198Z,-1.74
2022-12-03T04:46:34.910Z,-1.67
2022-12-03T04:51:37.630Z,-1.65
2022-12-03T04:56:40.400Z,-1.65
2022-12-03T05:01:43.522Z,-1.66
2022-12-03T05:06:46.926Z,-1.70
2022-12-03T05:11:49.726Z,-1.69
2022-12-03T05:16:52.605Z,-1.70
2022-12-03T05:21:55.468Z,-1.68
2022-12-03T05:26:58.232Z,-1.62
2022-12-03T05:32:01.039Z,-1.56
2022-12-03T05:37:03.742Z,-1.54
2022-12-03T05:42:25.311Z,-1.55
2022-12-03T05:47:28.076Z,-1.58
2022-12-03T05:52:30.984Z,-1.61
2022-12-03T05:57:33.757Z,-1.58
2022-12-03T06:02:36.564Z,-1.54
2022-12-03T06:07:39.809Z,-1.48
2022-12-03T06:12:43.281Z,-1.47
2022-12-03T06:17:46.420Z,-1.48
2022-12-03T06:22:49.220Z,-1.49
2022-12-03T06:27:52.023Z,-1.50
2022-12-03T06:32:55.028Z,-1.50
2022-12-03T06:37:58.239Z,-1.50
2022-12-03T06:43:01.047Z,-1.49
2022-12-03T06:48:03.964Z,-1.40
2022-12-03T06:53:06.689Z,-1.33
2022-12-03T06:58:09.451Z,-1.28
2022-12-03T07:03:12.472Z,-1.26
2022-12-03T07:08:15.333Z,-1.27
2022-12-03T07:13:18.054Z,-1.26
2022-12-03T07:18:20.981Z,-1.27
2022-12-03T07:23:23.805Z,-1.23
2022-12-03T07:28:26.561Z,-1.16
2022-12-03T07:33:29.286Z,-1.11
2022-12-03T07:38:31.994Z,-1.09
2022-12-03T07:43:34.833Z,-1.09
2022-12-03T07:48:37.669Z,-1.09
2022-12-03T07:53:40.389Z,-1.13
2022-12-03T07:58:43.131Z,-1.18
2022-12-03T08:03:45.867Z,-1.17
2022-12-03T08:08:48.577Z,-1.11
2022-12-03T08:13:51.275Z,-1.03
2022-12-03T08:18:57.512Z,-0.96
2022-12-03T08:24:12.724Z,-0.95
2022-12-03T08:29:19.020Z,-0.95
2022-12-03T08:34:24.567Z,-0.96
2022-12-03T08:39:37.735Z,-0.98
2022-12-03T08:44:41.251Z,-0.99
2022-12-03T08:49:51.441Z,-0.99
2022-12-03T08:54:56.270Z,-0.96
2022-12-03T08:59:59.477Z,-0.86
2022-12-03T09:05:22.208Z,-0.78
2022-12-03T09:10:24.921Z,-0.74
2022-12-03T09:15:28.577Z,-0.73
2022-12-03T09:20:31.376Z,-0.78
2022-12-03T09:25:34.325Z,-0.83
2022-12-03T09:30:37.786Z,-0.88
2022-12-03T09:35:40.473Z,-0.88
2022-12-03T09:40:43.294Z,-0.85
2022-12-03T09:45:47.779Z,-0.84
2022-12-03T09:50:51.853Z,-0.83
2022-12-03T09:56:01.400Z,-0.85
2022-12-03T10:01:13.869Z,-0.89
2022-12-03T10:06:23.217Z,-0.87
2022-12-03T10:11:27.127Z,-0.85
2022-12-03T10:16:30.915Z,-0.82
2022-12-03T10:21:38.784Z,-0.80
2022-12-03T10:26:41.789Z,-0.79
2022-12-03T10:31:45.080Z,-0.81
2022-12-03T10:36:47.782Z,-0.84
2022-12-03T10:41:50.605Z,-0.87
2022-12-03T10:47:10.376Z,-0.85
2022-12-03T10:52:25.933Z,-0.78
2022-12-03T10:57:29.107Z,-0.72
2022-12-03T11:02:31.914Z,-0.73
2022-12-03T11:07:38.736Z,-0.75
2022-12-03T11:12:41.589Z,-0.79
2022-12-03T11:17:47.391Z,-0.90
2022-12-03T11:22:51.507Z,-0.92
2022-12-03T11:28:15.596Z,-0.92
2022-12-03T11:33:33.472Z,-0.90
2022-12-03T11:38:54.083Z,-0.85
2022-12-03T11:43:58.619Z,-0.83
2022-12-03T11:49:03.688Z,-0.87
2022-12-03T11:54:06.545Z,-0.96
2022-12-03T11:59:13.515Z,-1.00
2022-12-03T12:04:38.135Z,-1.06
2022-12-03T12:09:55.345Z,-1.07
2022-12-03T12:14:59.400Z,-1.00
2022-12-03T12:20:27.901Z,-0.93
2022-12-03T12:25:30.650Z,-0.87
2022-12-03T12:30:33.860Z,-0.87
2022-12-03T12:35:37.205Z,-0.91
2022-12-03T12:40:45.122Z,-0.98
2022-12-03T12:45:48.179Z,-1.01
2022-12-03T12:51:01.177Z,-0.97
2022-12-03T12:56:09.960Z,-0.90
2022-12-03T13:01:21.617Z,-0.79
2022-12-03T13:06:28.345Z,-0.65
2022-12-03T13:11:45.757Z,-0.47
2022-12-03T13:16:53.901Z,-0.29
2022-12-03T13:22:02.819Z,-0.17
2022-12-03T13:27:23.128Z,-0.10
2022-12-03T13:32:27.299Z,-0.10
2022-12-03T13:37:31.824Z,-0.12
2022-12-03T13:42:39.220Z,-0.17
2022-12-03T13:47:47.532Z,-0.28
2022-12-03T13:52:50.312Z,-0.39
2022-12-03T13:57:53.706Z,-0.49
2022-12-03T14:02:56.517Z,-0.59
2022-12-03T14:08:02.263Z,-0.68
2022-12-03T14:13:05.204Z,-0.75
2022-12-03T14:18:07.951Z,-0.78
2022-12-03T14:23:10.672Z,-0.78
2022-12-03T14:28:13.453Z,-0.80
2022-12-03T14:33:16.251Z,-0.84
2022-12-03T14:38:19.259Z,-0.87
2022-12-03T14:43:22.073Z,-0.93
2022-12-03T14:48:24.755Z,-0.97
2022-12-03T14:53:27.747Z,-1.01
2022-12-03T14:58:30.530Z,-0.99
2022-12-03T15:03:33.288Z,-0.97
2022-12-03T15:08:36.031Z,-0.95
2022-12-03T15:13:38.809Z,-0.94
2022-12-03T15:18:41.546Z,-0.95
2022-12-03T15:23:44.293Z,-0.98
2022-12-03T15:28:48.506Z,-1.02
2022-12-03T15:33:51.724Z,-1.06
2022-12-03T15:38:54.523Z,-1.08
2022-12-03T15:43:59.961Z,-1.10
2022-12-03T15:49:03.412Z,-1.08
2022-12-03T15:54:06.847Z,-1.02
2022-12-03T15:59:09.845Z,-0.98
2022-12-03T16:04:12.683Z,-0.95
2022-12-03T16:09:15.504Z,-0.95
2022-12-03T16:14:20.472Z,-0.96
2022-12-03T16:19:23.198Z,-0.97
2022-12-03T16:24:26.312Z,-0.99
2022-12-03T16:29:29.598Z,-0.97
2022-12-03T16:34:32.368Z,-0.93
2022-12-03T16:39:35.345Z,-0.92
2022-12-03T16:44:58.374Z,-0.94
2022-12-03T16:50:07.593Z,-0.99
2022-12-03T16:55:10.427Z,-1.03
2022-12-03T17:00:14.205Z,-1.06
2022-12-03T17:05:17.057Z,-1.02
2022-12-03T17:10:19.854Z,-0.97
2022-12-03T17:15:22.948Z,-0.96
2022-12-03T17:20:25.931Z,-0.97
2022-12-03T17:25:30.049Z,-1.01
2022-12-03T17:30:33.275Z,-1.00
2022-12-03T17:35:36.089Z,-1.00
2022-12-03T17:40:39.026Z,-0.98
2022-12-03T17:45:43.521Z,-0.94
2022-12-03T17:50:46.766Z,-0.90
2022-12-03T17:55:49.617Z,-0.91
2022-12-03T18:00:54.891Z,-0.94
2022-12-03T18:06:00.102Z,-0.96
2022-12-03T18:11:02.895Z,-0.91
2022-12-03T18:16:06.063Z,-0.81
2022-12-03T18:21:08.899Z,-0.74
2022-12-03T18:26:11.876Z,-0.72
2022-12-03T18:31:16.601Z,-0.72
2022-12-03T18:36:25.695Z,-0.74
2022-12-03T18:41:28.864Z,-0.75
2022-12-03T18:46:52.350Z,-0.73
2022-12-03T18:51:58.874Z,-0.65
2022-12-03T18:57:02.198Z,-0.61
2022-12-03T19:02:05.750Z,-0.60
2022-12-03T19:07:09.773Z,-0.60
2022-12-03T19:12:14.714Z,-0.62
2022-12-03T19:17:17.737Z,-0.64
2022-12-03T19:22:20.512Z,-0.63
2022-12-03T19:27:23.257Z,-0.57
2022-12-03T19:32:25.984Z,-0.47
2022-12-03T19:37:30.969Z,-0.33
2022-12-03T19:42:33.770Z,-0.24
2022-12-03T19:47:37.081Z,-0.20
2022-12-03T19:52:39.782Z,-0.22
2022-12-03T19:57:42.471Z,-0.24
2022-12-03T20:02:48.899Z,-0.23
2022-12-03T20:07:51.748Z,-0.20
2022-12-03T20:12:54.528Z,-0.11
2022-12-03T20:17:57.367Z,-0.07
2022-12-03T20:23:00.080Z,-0.06
2022-12-03T20:28:02.785Z,-0.10
2022-12-03T20:33:05.572Z,-0.14
2022-12-03T20:38:08.282Z,-0.18
2022-12-03T20:43:11.074Z,-0.16
2022-12-03T20:48:14.169Z,-0.12
2022-12-03T20:53:24.642Z,-0.07
2022-12-03T20:58:28.706Z,-0.04
2022-12-03T21:03:31.492Z,-0.03
2022-12-03T21:08:41.399Z,-0.02
2022-12-03T21:13:47.966Z,-0.03
2022-12-03T21:18:50.727Z,0.02
2022-12-03T21:23:53.635Z,0.09
2022-12-03T21:28:56.355Z,0.17
2022-12-03T21:33:59.150Z,0.21
2022-12-03T21:39:01.937Z,0.20
2022-12-03T21:44:04.752Z,0.17
2022-12-03T21:49:07.669Z,0.13
2022-12-03T21:54:10.569Z,0.12
2022-12-03T21:59:13.270Z,0.17
2022-12-03T22:04:15.950Z,0.22
2022-12-03T22:09:24.804Z,0.25
2022-12-03T22:14:30.006Z,0.24
2022-12-03T22:19:32.767Z,0.20
2022-12-03T22:24:35.568Z,0.16
2022-12-03T22:29:38.317Z,0.16
2022-12-03T22:34:44.218Z,0.22
2022-12-03T22:39:47.033Z,0.31
2022-12-03T22:44:49.722Z,0.40
2022-12-03T22:49:52.638Z,0.43
2022-12-03T22:54:55.652Z,0.42
2022-12-03T22:59:58.352Z,0.43
2022-12-03T23:05:01.154Z,0.47
2022-12-03T23:10:04.736Z,0.55
2022-12-03T23:15:08.510Z,0.60
2022-12-03T23:20:12.357Z,0.61
2022-12-03T23:25:15.532Z,0.58
2022-12-03T23:30:18.425Z,0.54
2022-12-03T23:35:21.375Z,0.54
2022-12-03T23:40:24.246Z,0.59
2022-12-03T23:45:26.993Z,0.61
2022-12-03T23:50:30.314Z,0.62
2022-12-03T23:55:33.779Z,0.60
